Terminal Aerodrome Forecast
Issued by NWS Corpus Christi, TX

Home | Current Version | Previous Version | Text Only | Print | Product List | Glossary On
Versions: 1 2 3 4 5 6 7 8 9 10 11 12 13 14 15
151
FTUS44 KCRP 281733
TAFCRP
TAF
KCRP 281733Z 2818/2918 03010KT P6SM VCSH SCT050 BKN250
     FM290000 05006KT P6SM SCT040 BKN250
     FM290900 36006KT P6SM VCSH BKN035=

USA.gov is the U.S. government's official web portal to all federal, state and local government web resources and services.